sensor_id;sensor_type;location;lat;lon;timestamp;pressure;altitude;pressure_sealevel;temperature;humidity
10992;BME280;5549;47.028;15.514;2022-08-19T00:02:06;96000.03;;;21.45;58.80
10992;BME280;5549;47.028;15.514;2022-08-19T00:04:37;95996.09;;;21.55;58.02
10992;BME280;5549;47.028;15.514;2022-08-19T00:07:08;96008.00;;;21.59;57.89
10992;BME280;5549;47.028;15.514;2022-08-19T00:09:36;96007.56;;;21.68;58.03
10992;BME280;5549;47.028;15.514;2022-08-19T00:12:06;96011.22;;;21.74;57.63
10992;BME280;5549;47.028;15.514;2022-08-19T00:14:37;96021.09;;;21.80;57.38
10992;BME280;5549;47.028;15.514;2022-08-19T00:17:08;96023.94;;;21.85;58.00
10992;BME280;5549;47.028;15.514;2022-08-19T00:19:39;96031.34;;;21.83;58.89
10992;BME280;5549;47.028;15.514;2022-08-19T00:22:08;96039.59;;;21.75;59.53
10992;BME280;5549;47.028;15.514;2022-08-19T00:24:38;96029.34;;;21.65;59.90
10992;BME280;5549;47.028;15.514;2022-08-19T00:27:09;96027.75;;;21.58;60.20
10992;BME280;5549;47.028;15.514;2022-08-19T00:29:40;96023.63;;;21.55;60.21
10992;BME280;5549;47.028;15.514;2022-08-19T00:32:07;96025.69;;;21.53;59.98
10992;BME280;5549;47.028;15.514;2022-08-19T00:34:38;96026.72;;;21.52;60.51
10992;BME280;5549;47.028;15.514;2022-08-19T00:37:06;96026.94;;;21.51;60.77
10992;BME280;5549;47.028;15.514;2022-08-19T00:39:34;96025.28;;;21.50;60.75
10992;BME280;5549;47.028;15.514;2022-08-19T00:42:04;96016.88;;;21.46;60.84
10992;BME280;5549;47.028;15.514;2022-08-19T00:44:36;96021.63;;;21.44;61.07
10992;BME280;5549;47.028;15.514;2022-08-19T00:47:04;96028.63;;;21.38;61.12
10992;BME280;5549;47.028;15.514;2022-08-19T00:49:36;96041.34;;;21.36;61.22
10992;BME280;5549;47.028;15.514;2022-08-19T00:52:09;96052.88;;;21.30;62.41
10992;BME280;5549;47.028;15.514;2022-08-19T00:54:40;96052.44;;;21.20;63.16
10992;BME280;5549;47.028;15.514;2022-08-19T00:57:12;96050.19;;;21.17;63.21
10992;BME280;5549;47.028;15.514;2022-08-19T00:59:48;96043.22;;;21.16;63.10
10992;BME280;5549;47.028;15.514;2022-08-19T01:02:19;96042.19;;;21.17;62.78
10992;BME280;5549;47.028;15.514;2022-08-19T01:04:49;96050.41;;;21.16;63.08
10992;BME280;5549;47.028;15.514;2022-08-19T01:07:17;96056.56;;;21.16;63.12
10992;BME280;5549;47.028;15.514;2022-08-19T01:09:46;96060.25;;;21.15;62.88
10992;BME280;5549;47.028;15.514;2022-08-19T01:12:14;96071.56;;;21.17;62.88
10992;BME280;5549;47.028;15.514;2022-08-19T01:14:47;96076.69;;;21.19;62.54
10992;BME280;5549;47.028;15.514;2022-08-19T01:17:16;96087.38;;;21.19;63.04
10992;BME280;5549;47.028;15.514;2022-08-19T01:19:45;96085.72;;;21.18;63.33
10992;BME280;5549;47.028;15.514;2022-08-19T01:22:27;96071.75;;;21.16;63.39
10992;BME280;5549;47.028;15.514;2022-08-19T01:25:00;96080.38;;;21.18;63.38
10992;BME280;5549;47.028;15.514;2022-08-19T01:27:37;96079.56;;;21.17;63.94
10992;BME280;5549;47.028;15.514;2022-08-19T01:30:12;96068.47;;;21.07;63.98
10992;BME280;5549;47.028;15.514;2022-08-19T01:32:43;96060.28;;;20.89;64.79
10992;BME280;5549;47.028;15.514;2022-08-19T01:35:12;96054.91;;;20.75;64.92
10992;BME280;5549;47.028;15.514;2022-08-19T01:37:50;96044.41;;;20.61;65.30
10992;BME280;5549;47.028;15.514;2022-08-19T01:40:25;96039.69;;;20.49;65.82
10992;BME280;5549;47.028;15.514;2022-08-19T01:42:56;96035.59;;;20.47;65.95
10992;BME280;5549;47.028;15.514;2022-08-19T01:45:28;96023.69;;;20.43;66.18
10992;BME280;5549;47.028;15.514;2022-08-19T01:47:56;96005.22;;;20.41;66.13
10992;BME280;5549;47.028;15.514;2022-08-19T01:50:26;95986.50;;;20.35;66.19
10992;BME280;5549;47.028;15.514;2022-08-19T01:52:59;95972.75;;;20.18;66.97
10992;BME280;5549;47.028;15.514;2022-08-19T01:55:30;95972.75;;;20.18;67.06
10992;BME280;5549;47.028;15.514;2022-08-19T01:58:01;95956.75;;;20.18;67.02
10992;BME280;5549;47.028;15.514;2022-08-19T02:00:32;95945.25;;;20.11;67.25
10992;BME280;5549;47.028;15.514;2022-08-19T02:03:03;95970.28;;;20.23;66.67
10992;BME280;5549;47.028;15.514;2022-08-19T02:05:31;95966.81;;;20.36;65.72
10992;BME280;5549;47.028;15.514;2022-08-19T02:08:02;95970.75;;;20.46;65.27
10992;BME280;5549;47.028;15.514;2022-08-19T02:10:32;95973.00;;;20.56;64.55
10992;BME280;5549;47.028;15.514;2022-08-19T02:13:02;95968.28;;;20.65;64.31
10992;BME280;5549;47.028;15.514;2022-08-19T02:15:30;95969.91;;;20.72;64.03
10992;BME280;5549;47.028;15.514;2022-08-19T02:18:02;95973.59;;;20.78;63.75
10992;BME280;5549;47.028;15.514;2022-08-19T02:20:35;95977.34;;;20.84;63.76
10992;BME280;5549;47.028;15.514;2022-08-19T02:23:04;95977.34;;;20.84;63.70
10992;BME280;5549;47.028;15.514;2022-08-19T02:25:33;95969.31;;;20.84;63.58
10992;BME280;5549;47.028;15.514;2022-08-19T02:28:03;95961.31;;;20.84;63.29
10992;BME280;5549;47.028;15.514;2022-08-19T02:30:31;95958.22;;;20.80;64.13
10992;BME280;5549;47.028;15.514;2022-08-19T02:32:59;95957.59;;;20.71;63.81
10992;BME280;5549;47.028;15.514;2022-08-19T02:35:29;95957.19;;;20.74;63.87
10992;BME280;5549;47.028;15.514;2022-08-19T02:38:03;95957.19;;;20.74;64.14
10992;BME280;5549;47.028;15.514;2022-08-19T02:40:49;95959.66;;;20.76;63.80
10992;BME280;5549;47.028;15.514;2022-08-19T02:43:18;95958.41;;;20.78;63.77
10992;BME280;5549;47.028;15.514;2022-08-19T02:45:51;95963.16;;;20.76;63.84
10992;BME280;5549;47.028;15.514;2022-08-19T02:48:24;95966.22;;;20.73;64.50
10992;BME280;5549;47.028;15.514;2022-08-19T02:50:55;95964.38;;;20.67;64.85
10992;BME280;5549;47.028;15.514;2022-08-19T02:53:27;95959.03;;;20.67;64.81
10992;BME280;5549;47.028;15.514;2022-08-19T02:55:56;95965.00;;;20.69;64.70
10992;BME280;5549;47.028;15.514;2022-08-19T02:58:24;95977.53;;;20.62;65.62
10992;BME280;5549;47.028;15.514;2022-08-19T03:00:55;95970.53;;;20.61;65.84
10992;BME280;5549;47.028;15.514;2022-08-19T03:03:24;95961.91;;;20.59;65.96
10992;BME280;5549;47.028;15.514;2022-08-19T03:06:09;95970.13;;;20.51;66.01
10992;BME280;5549;47.028;15.514;2022-08-19T03:08:46;95965.00;;;20.49;66.16
10992;BME280;5549;47.028;15.514;2022-08-19T03:11:31;95960.50;;;20.50;66.22
10992;BME280;5549;47.028;15.514;2022-08-19T03:14:01;95962.34;;;20.49;66.31
10992;BME280;5549;47.028;15.514;2022-08-19T03:16:39;95973.00;;;20.43;67.14
10992;BME280;5549;47.028;15.514;2022-08-19T03:19:08;95974.19;;;20.34;67.59
10992;BME280;5549;47.028;15.514;2022-08-19T03:21:35;95973.56;;;20.32;67.21
10992;BME280;5549;47.028;15.514;2022-08-19T03:24:09;95990.78;;;20.23;68.22
10992;BME280;5549;47.028;15.514;2022-08-19T03:26:39;95993.66;;;20.14;68.54
10992;BME280;5549;47.028;15.514;2022-08-19T03:29:08;95989.75;;;20.10;68.88
10992;BME280;5549;47.028;15.514;2022-08-19T03:31:39;95990.78;;;20.09;69.32
10992;BME280;5549;47.028;15.514;2022-08-19T03:34:10;95986.25;;;20.03;69.60
10992;BME280;5549;47.028;15.514;2022-08-19T03:36:39;95989.94;;;20.02;69.60
10992;BME280;5549;47.028;15.514;2022-08-19T03:39:12;95997.72;;;20.04;69.20
10992;BME280;5549;47.028;15.514;2022-08-19T03:41:43;96012.09;;;20.03;69.58
10992;BME280;5549;47.028;15.514;2022-08-19T03:44:15;96022.53;;;20.04;69.49
10992;BME280;5549;47.028;15.514;2022-08-19T03:46:45;96053.91;;;20.02;70.15
10992;BME280;5549;47.028;15.514;2022-08-19T03:49:17;96070.69;;;19.96;70.64
10992;BME280;5549;47.028;15.514;2022-08-19T03:51:49;96090.13;;;19.83;71.00
10992;BME280;5549;47.028;15.514;2022-08-19T03:54:21;96104.97;;;19.65;71.16
10992;BME280;5549;47.028;15.514;2022-08-19T03:56:54;96110.50;;;19.63;71.58
10992;BME280;5549;47.028;15.514;2022-08-19T03:59:25;96124.53;;;19.50;72.40
10992;BME280;5549;47.028;15.514;2022-08-19T04:01:55;96127.97;;;19.44;72.64
10992;BME280;5549;47.028;15.514;2022-08-19T04:04:23;96125.25;;;19.38;73.07
10992;BME280;5549;47.028;15.514;2022-08-19T04:06:52;96118.25;;;19.30;73.30
10992;BME280;5549;47.028;15.514;2022-08-19T04:09:23;96107.22;;;19.33;73.31
10992;BME280;5549;47.028;15.514;2022-08-19T04:11:56;96111.56;;;19.41;72.82
10992;BME280;5549;47.028;15.514;2022-08-19T04:14:28;96116.69;;;19.42;72.55
10992;BME280;5549;47.028;15.514;2022-08-19T04:17:00;96117.47;;;19.36;72.84
10992;BME280;5549;47.028;15.514;2022-08-19T04:19:31;96108.03;;;19.34;72.91
10992;BME280;5549;47.028;15.514;2022-08-19T04:22:03;96092.78;;;19.21;73.97
10992;BME280;5549;47.028;15.514;2022-08-19T04:24:34;96083.59;;;19.02;74.91
10992;BME280;5549;47.028;15.514;2022-08-19T04:27:02;96082.28;;;18.91;76.02
10992;BME280;5549;47.028;15.514;2022-08-19T04:29:34;96100.22;;;19.04;75.41
10992;BME280;5549;47.028;15.514;2022-08-19T04:32:05;96108.13;;;19.19;74.69
10992;BME280;5549;47.028;15.514;2022-08-19T04:34:35;96093.50;;;19.08;75.11
10992;BME280;5549;47.028;15.514;2022-08-19T04:37:06;96080.56;;;19.05;75.46
10992;BME280;5549;47.028;15.514;2022-08-19T04:39:42;96073.53;;;19.19;74.67
10992;BME280;5549;47.028;15.514;2022-08-19T04:42:30;96058.38;;;19.19;74.61
10992;BME280;5549;47.028;15.514;2022-08-19T04:45:12;96065.00;;;19.30;73.81
10992;BME280;5549;47.028;15.514;2022-08-19T04:47:42;96066.41;;;19.54;72.66
10992;BME280;5549;47.028;15.514;2022-08-19T04:50:16;96047.84;;;19.74;71.87
10992;BME280;5549;47.028;15.514;2022-08-19T04:52:44;96047.72;;;19.89;71.30
10992;BME280;5549;47.028;15.514;2022-08-19T04:55:14;96042.63;;;20.00;70.89
10992;BME280;5549;47.028;15.514;2022-08-19T04:57:42;96052.69;;;20.11;70.25
10992;BME280;5549;47.028;15.514;2022-08-19T05:00:11;96050.47;;;20.22;69.92
10992;BME280;5549;47.028;15.514;2022-08-19T05:02:40;96052.34;;;20.34;69.29
10992;BME280;5549;47.028;15.514;2022-08-19T05:05:08;96047.47;;;20.44;68.45
10992;BME280;5549;47.028;15.514;2022-08-19T05:07:38;96046.88;;;20.56;68.49
10992;BME280;5549;47.028;15.514;2022-08-19T05:10:08;96054.47;;;20.65;67.68
10992;BME280;5549;47.028;15.514;2022-08-19T05:12:39;96063.94;;;20.74;67.08
10992;BME280;5549;47.028;15.514;2022-08-19T05:15:08;96082.44;;;20.83;66.93
10992;BME280;5549;47.028;15.514;2022-08-19T05:17:39;96086.56;;;20.92;66.58
10992;BME280;5549;47.028;15.514;2022-08-19T05:20:29;96087.59;;;21.04;66.01
10992;BME280;5549;47.028;15.514;2022-08-19T05:23:15;96086.97;;;21.15;65.33
10992;BME280;5549;47.028;15.514;2022-08-19T05:25:45;96089.44;;;21.23;64.75
10992;BME280;5549;47.028;15.514;2022-08-19T05:28:14;96081.22;;;21.31;63.87
10992;BME280;5549;47.028;15.514;2022-08-19T05:30:44;96089.63;;;21.41;63.63
10992;BME280;5549;47.028;15.514;2022-08-19T05:33:12;96085.72;;;21.51;63.56
10992;BME280;5549;47.028;15.514;2022-08-19T05:35:40;96082.00;;;21.58;63.48
10992;BME280;5549;47.028;15.514;2022-08-19T05:38:11;96080.94;;;21.66;63.17
10992;BME280;5549;47.028;15.514;2022-08-19T05:40:41;96079.72;;;21.68;65.35
10992;BME280;5549;47.028;15.514;2022-08-19T05:43:14;96080.31;;;21.77;64.68
10992;BME280;5549;47.028;15.514;2022-08-19T05:45:45;96093.22;;;21.87;64.76
10992;BME280;5549;47.028;15.514;2022-08-19T05:48:14;96076.13;;;21.94;64.74
10992;BME280;5549;47.028;15.514;2022-08-19T05:50:46;96089.47;;;22.01;63.56
10992;BME280;5549;47.028;15.514;2022-08-19T05:53:16;96095.84;;;22.06;62.69
10992;BME280;5549;47.028;15.514;2022-08-19T05:55:44;96098.69;;;22.18;63.10
10992;BME280;5549;47.028;15.514;2022-08-19T05:58:15;96113.66;;;22.32;63.57
10992;BME280;5549;47.028;15.514;2022-08-19T06:00:44;96117.06;;;22.46;63.60
10992;BME280;5549;47.028;15.514;2022-08-19T06:03:13;96121.78;;;22.57;63.49
10992;BME280;5549;47.028;15.514;2022-08-19T06:05:42;96117.38;;;22.69;63.42
10992;BME280;5549;47.028;15.514;2022-08-19T06:08:09;96121.88;;;22.82;63.14
10992;BME280;5549;47.028;15.514;2022-08-19T06:10:39;96121.16;;;22.93;62.37
10992;BME280;5549;47.028;15.514;2022-08-19T06:13:09;96123.38;;;23.03;61.72
10992;BME280;5549;47.028;15.514;2022-08-19T06:15:38;96120.19;;;23.13;61.69
10992;BME280;5549;47.028;15.514;2022-08-19T06:18:14;96112.44;;;23.29;61.75
10992;BME280;5549;47.028;15.514;2022-08-19T06:20:45;96114.19;;;23.42;61.79
10992;BME280;5549;47.028;15.514;2022-08-19T06:23:12;96111.22;;;23.50;62.19
10992;BME280;5549;47.028;15.514;2022-08-19T06:25:40;96102.09;;;23.58;61.99
10992;BME280;5549;47.028;15.514;2022-08-19T06:28:08;96097.28;;;23.66;61.75
10992;BME280;5549;47.028;15.514;2022-08-19T06:30:38;96072.84;;;23.75;61.19
10992;BME280;5549;47.028;15.514;2022-08-19T06:33:09;96079.34;;;23.85;61.08
10992;BME280;5549;47.028;15.514;2022-08-19T06:35:40;96090.81;;;23.92;60.70
10992;BME280;5549;47.028;15.514;2022-08-19T06:38:10;96080.59;;;24.01;59.70
10992;BME280;5549;47.028;15.514;2022-08-19T06:40:37;96074.56;;;24.06;58.60
10992;BME280;5549;47.028;15.514;2022-08-19T06:43:08;96079.97;;;24.17;58.24
10992;BME280;5549;47.028;15.514;2022-08-19T06:45:40;96094.72;;;24.33;57.74
10992;BME280;5549;47.028;15.514;2022-08-19T06:48:08;96104.03;;;24.24;56.11
10992;BME280;5549;47.028;15.514;2022-08-19T06:50:35;96104.47;;;24.27;56.09
10992;BME280;5549;47.028;15.514;2022-08-19T06:53:06;96103.22;;;24.30;56.08
10992;BME280;5549;47.028;15.514;2022-08-19T06:55:34;96103.94;;;24.37;56.70
10992;BME280;5549;47.028;15.514;2022-08-19T06:58:05;96115.41;;;24.44;56.60
10992;BME280;5549;47.028;15.514;2022-08-19T07:00:33;96111.59;;;24.52;56.26
10992;BME280;5549;47.028;15.514;2022-08-19T07:03:03;96129.47;;;24.58;56.45
10992;BME280;5549;47.028;15.514;2022-08-19T07:05:37;96132.06;;;24.65;56.36
10992;BME280;5549;47.028;15.514;2022-08-19T07:08:06;96157.16;;;24.58;56.71
10992;BME280;5549;47.028;15.514;2022-08-19T07:10:33;96160.88;;;24.57;56.14
10992;BME280;5549;47.028;15.514;2022-08-19T07:13:06;96165.66;;;24.55;55.85
10992;BME280;5549;47.028;15.514;2022-08-19T07:15:36;96160.28;;;24.55;55.84
10992;BME280;5549;47.028;15.514;2022-08-19T07:18:06;96151.41;;;24.55;55.46
10992;BME280;5549;47.028;15.514;2022-08-19T07:20:33;96147.91;;;24.54;55.58
10992;BME280;5549;47.028;15.514;2022-08-19T07:23:01;96148.28;;;24.58;55.76
10992;BME280;5549;47.028;15.514;2022-08-19T07:25:32;96143.84;;;24.63;56.24
10992;BME280;5549;47.028;15.514;2022-08-19T07:28:01;96141.53;;;24.67;56.61
10992;BME280;5549;47.028;15.514;2022-08-19T07:30:31;96148.09;;;24.71;56.46
10992;BME280;5549;47.028;15.514;2022-08-19T07:33:01;96165.03;;;24.72;56.77
10992;BME280;5549;47.028;15.514;2022-08-19T07:35:30;96160.56;;;24.66;57.34
10992;BME280;5549;47.028;15.514;2022-08-19T07:38:00;96150.88;;;24.65;57.64
10992;BME280;5549;47.028;15.514;2022-08-19T07:40:30;96152.72;;;24.64;58.30
10992;BME280;5549;47.028;15.514;2022-08-19T07:43:00;96168.47;;;24.60;58.60
10992;BME280;5549;47.028;15.514;2022-08-19T07:45:28;96199.34;;;24.51;59.36
10992;BME280;5549;47.028;15.514;2022-08-19T07:47:58;96204.22;;;24.43;60.22
10992;BME280;5549;47.028;15.514;2022-08-19T07:50:29;96204.28;;;24.36;61.20
10992;BME280;5549;47.028;15.514;2022-08-19T07:52:57;96189.81;;;23.94;62.48
10992;BME280;5549;47.028;15.514;2022-08-19T07:55:28;96199.09;;;23.73;63.97
10992;BME280;5549;47.028;15.514;2022-08-19T07:57:58;96197.78;;;23.57;64.72
10992;BME280;5549;47.028;15.514;2022-08-19T08:00:26;96204.66;;;23.47;65.39
10992;BME280;5549;47.028;15.514;2022-08-19T08:02:56;96220.59;;;23.35;64.25
10992;BME280;5549;47.028;15.514;2022-08-19T08:05:24;96226.66;;;23.24;65.17
10992;BME280;5549;47.028;15.514;2022-08-19T08:08:13;96211.53;;;23.04;66.51
10992;BME280;5549;47.028;15.514;2022-08-19T08:11:08;96204.66;;;22.77;67.78
10992;BME280;5549;47.028;15.514;2022-08-19T08:13:36;96205.56;;;22.58;67.07
10992;BME280;5549;47.028;15.514;2022-08-19T08:16:04;96204.97;;;22.56;66.45
10992;BME280;5549;47.028;15.514;2022-08-19T08:18:34;96203.09;;;22.56;65.61
10992;BME280;5549;47.028;15.514;2022-08-19T08:21:08;96190.72;;;22.62;65.79
10992;BME280;5549;47.028;15.514;2022-08-19T08:23:40;96175.69;;;22.61;67.13
10992;BME280;5549;47.028;15.514;2022-08-19T08:26:09;96157.22;;;22.46;70.52
10992;BME280;5549;47.028;15.514;2022-08-19T08:28:39;96132.75;;;22.36;72.51
10992;BME280;5549;47.028;15.514;2022-08-19T08:31:07;96124.19;;;22.21;72.82
10992;BME280;5549;47.028;15.514;2022-08-19T08:33:35;96113.53;;;22.01;74.18
10992;BME280;5549;47.028;15.514;2022-08-19T08:36:06;96124.63;;;22.18;74.29
10992;BME280;5549;47.028;15.514;2022-08-19T08:38:38;96159.16;;;22.19;74.98
10992;BME280;5549;47.028;15.514;2022-08-19T08:41:13;96164.94;;;22.16;73.85
10992;BME280;5549;47.028;15.514;2022-08-19T08:43:48;96152.59;;;22.22;72.70
10992;BME280;5549;47.028;15.514;2022-08-19T08:46:22;96112.09;;;22.12;74.22
10992;BME280;5549;47.028;15.514;2022-08-19T08:48:57;96129.13;;;22.24;74.28
10992;BME280;5549;47.028;15.514;2022-08-19T08:51:32;96112.22;;;22.30;73.54
10992;BME280;5549;47.028;15.514;2022-08-19T08:54:07;96123.31;;;22.33;73.73
10992;BME280;5549;47.028;15.514;2022-08-19T08:56:38;96131.56;;;22.32;71.27
10992;BME280;5549;47.028;15.514;2022-08-19T08:59:20;96138.69;;;22.45;70.32
10992;BME280;5549;47.028;15.514;2022-08-19T09:01:48;96148.34;;;22.52;72.99
10992;BME280;5549;47.028;15.514;2022-08-19T09:04:16;96122.38;;;22.59;72.93
10992;BME280;5549;47.028;15.514;2022-08-19T09:06:51;96144.84;;;22.58;72.12
10992;BME280;5549;47.028;15.514;2022-08-19T09:09:29;96154.06;;;22.62;73.54
10992;BME280;5549;47.028;15.514;2022-08-19T09:12:05;96154.03;;;22.69;73.55
10992;BME280;5549;47.028;15.514;2022-08-19T09:14:46;96166.34;;;22.77;73.54
10992;BME280;5549;47.028;15.514;2022-08-19T09:17:15;96152.34;;;22.81;73.34
10992;BME280;5549;47.028;15.514;2022-08-19T09:19:53;96151.53;;;22.81;74.57
10992;BME280;5549;47.028;15.514;2022-08-19T09:22:23;96163.94;;;22.68;75.89
10992;BME280;5549;47.028;15.514;2022-08-19T09:24:56;96135.88;;;22.78;75.34
10992;BME280;5549;47.028;15.514;2022-08-19T09:27:27;96090.19;;;22.72;76.68
10992;BME280;5549;47.028;15.514;2022-08-19T09:29:56;96106.25;;;22.72;75.68
10992;BME280;5549;47.028;15.514;2022-08-19T09:32:25;96106.72;;;22.63;77.14
10992;BME280;5549;47.028;15.514;2022-08-19T09:34:53;96120.44;;;22.73;76.30
10992;BME280;5549;47.028;15.514;2022-08-19T09:37:24;96122.50;;;23.09;76.93
10992;BME280;5549;47.028;15.514;2022-08-19T09:39:54;96122.31;;;23.54;75.84
10992;BME280;5549;47.028;15.514;2022-08-19T09:42:24;96135.22;;;24.07;75.19
10992;BME280;5549;47.028;15.514;2022-08-19T09:44:51;96133.69;;;24.36;71.59
10992;BME280;5549;47.028;15.514;2022-08-19T09:47:22;96124.41;;;24.50;71.78
10992;BME280;5549;47.028;15.514;2022-08-19T09:49:49;96124.47;;;24.61;70.88
10992;BME280;5549;47.028;15.514;2022-08-19T09:52:17;96116.78;;;24.65;68.99
10992;BME280;5549;47.028;15.514;2022-08-19T09:54:47;96109.44;;;24.72;68.29
10992;BME280;5549;47.028;15.514;2022-08-19T09:57:17;96097.44;;;24.75;67.37
10992;BME280;5549;47.028;15.514;2022-08-19T09:59:45;96132.78;;;24.72;64.89
10992;BME280;5549;47.028;15.514;2022-08-19T10:02:13;96151.91;;;24.63;65.35
10992;BME280;5549;47.028;15.514;2022-08-19T10:04:43;96160.28;;;24.55;64.18
10992;BME280;5549;47.028;15.514;2022-08-19T10:07:30;96151.31;;;24.61;64.58
10992;BME280;5549;47.028;15.514;2022-08-19T10:10:00;96171.75;;;24.62;66.36
10992;BME280;5549;47.028;15.514;2022-08-19T10:12:33;96162.50;;;24.58;66.79
10992;BME280;5549;47.028;15.514;2022-08-19T10:15:02;96165.19;;;24.58;67.11
10992;BME280;5549;47.028;15.514;2022-08-19T10:17:30;96172.66;;;24.56;68.23
10992;BME280;5549;47.028;15.514;2022-08-19T10:20:02;96183.47;;;24.50;68.38
10992;BME280;5549;47.028;15.514;2022-08-19T10:22:32;96167.09;;;24.40;69.76
10992;BME280;5549;47.028;15.514;2022-08-19T10:25:01;96165.53;;;24.25;71.23
10992;BME280;5549;47.028;15.514;2022-08-19T10:27:29;96169.72;;;24.21;70.73
10992;BME280;5549;47.028;15.514;2022-08-19T10:29:59;96159.13;;;24.08;70.88
10992;BME280;5549;47.028;15.514;2022-08-19T10:32:27;96136.94;;;23.58;74.42
10992;BME280;5549;47.028;15.514;2022-08-19T10:34:57;96123.78;;;23.56;75.56
10992;BME280;5549;47.028;15.514;2022-08-19T10:37:25;96139.50;;;23.71;73.97
10992;BME280;5549;47.028;15.514;2022-08-19T10:39:54;96155.03;;;23.87;73.49
10992;BME280;5549;47.028;15.514;2022-08-19T10:42:24;96181.69;;;24.00;72.19
10992;BME280;5549;47.028;15.514;2022-08-19T10:44:51;96185.06;;;24.14;72.12
10992;BME280;5549;47.028;15.514;2022-08-19T10:47:20;96190.81;;;24.18;69.97
10992;BME280;5549;47.028;15.514;2022-08-19T10:49:49;96187.81;;;24.26;69.99
10992;BME280;5549;47.028;15.514;2022-08-19T10:52:33;96183.63;;;24.37;69.49
10992;BME280;5549;47.028;15.514;2022-08-19T10:55:06;96186.84;;;24.45;69.30
10992;BME280;5549;47.028;15.514;2022-08-19T10:57:53;96179.97;;;24.49;69.66
10992;BME280;5549;47.028;15.514;2022-08-19T11:00:24;96168.94;;;24.57;69.34
10992;BME280;5549;47.028;15.514;2022-08-19T11:02:56;96161.25;;;24.61;69.87
10992;BME280;5549;47.028;15.514;2022-08-19T11:05:25;96161.38;;;24.66;69.47
10992;BME280;5549;47.028;15.514;2022-08-19T11:07:53;96158.28;;;24.81;70.00
10992;BME280;5549;47.028;15.514;2022-08-19T11:10:21;96151.72;;;24.77;69.01
10992;BME280;5549;47.028;15.514;2022-08-19T11:12:49;96145.63;;;24.70;69.04
10992;BME280;5549;47.028;15.514;2022-08-19T11:15:21;96117.59;;;24.66;68.53
10992;BME280;5549;47.028;15.514;2022-08-19T11:17:49;96127.53;;;24.65;70.65
10992;BME280;5549;47.028;15.514;2022-08-19T11:20:24;96160.97;;;24.81;67.59
10992;BME280;5549;47.028;15.514;2022-08-19T11:22:54;96197.34;;;24.95;64.51
10992;BME280;5549;47.028;15.514;2022-08-19T11:25:21;96198.00;;;25.09;63.18
10992;BME280;5549;47.028;15.514;2022-08-19T11:27:49;96167.91;;;25.18;63.14
10992;BME280;5549;47.028;15.514;2022-08-19T11:30:20;96155.31;;;25.31;62.33
10992;BME280;5549;47.028;15.514;2022-08-19T11:32:51;96148.53;;;25.40;60.69
10992;BME280;5549;47.028;15.514;2022-08-19T11:35:19;96138.94;;;25.32;59.22
10992;BME280;5549;47.028;15.514;2022-08-19T11:37:48;96179.50;;;25.42;60.50
10992;BME280;5549;47.028;15.514;2022-08-19T11:40:18;96171.34;;;25.49;58.95
10992;BME280;5549;47.028;15.514;2022-08-19T11:42:51;96161.66;;;25.59;58.97
10992;BME280;5549;47.028;15.514;2022-08-19T11:45:23;96152.06;;;25.64;58.46
10992;BME280;5549;47.028;15.514;2022-08-19T11:47:53;96159.59;;;25.73;59.67
10992;BME280;5549;47.028;15.514;2022-08-19T11:50:21;96170.00;;;25.81;58.11
10992;BME280;5549;47.028;15.514;2022-08-19T11:52:53;96166.00;;;25.96;58.12
10992;BME280;5549;47.028;15.514;2022-08-19T11:55:21;96153.84;;;25.93;57.65
10992;BME280;5549;47.028;15.514;2022-08-19T11:57:49;96153.50;;;26.01;57.37
10992;BME280;5549;47.028;15.514;2022-08-19T12:00:19;96148.47;;;26.16;58.38
10992;BME280;5549;47.028;15.514;2022-08-19T12:02:49;96137.56;;;26.35;58.56
10992;BME280;5549;47.028;15.514;2022-08-19T12:05:19;96134.38;;;26.49;57.65
10992;BME280;5549;47.028;15.514;2022-08-19T12:07:51;96130.34;;;26.64;56.42
10992;BME280;5549;47.028;15.514;2022-08-19T12:10:23;96126.88;;;26.51;54.75
10992;BME280;5549;47.028;15.514;2022-08-19T12:12:53;96125.53;;;26.66;54.30
10992;BME280;5549;47.028;15.514;2022-08-19T12:15:21;96112.81;;;26.78;53.93
10992;BME280;5549;47.028;15.514;2022-08-19T12:17:48;96117.91;;;26.91;54.36
10992;BME280;5549;47.028;15.514;2022-08-19T12:20:18;96114.44;;;27.07;55.00
10992;BME280;5549;47.028;15.514;2022-08-19T12:22:50;96108.09;;;27.13;50.73
10992;BME280;5549;47.028;15.514;2022-08-19T12:25:18;96107.13;;;26.91;50.43
10992;BME280;5549;47.028;15.514;2022-08-19T12:27:46;96101.66;;;26.86;51.57
10992;BME280;5549;47.028;15.514;2022-08-19T12:30:14;96102.31;;;26.93;50.49
10992;BME280;5549;47.028;15.514;2022-08-19T12:32:44;96091.75;;;27.03;50.45
10992;BME280;5549;47.028;15.514;2022-08-19T12:35:14;96099.09;;;27.08;49.80
10992;BME280;5549;47.028;15.514;2022-08-19T12:37:43;96098.56;;;26.94;46.49
10992;BME280;5549;47.028;15.514;2022-08-19T12:40:13;96086.44;;;27.08;47.75
10992;BME280;5549;47.028;15.514;2022-08-19T12:42:43;96084.97;;;27.17;48.62
10992;BME280;5549;47.028;15.514;2022-08-19T12:45:13;96083.72;;;27.42;50.33
10992;BME280;5549;47.028;15.514;2022-08-19T12:47:46;96087.41;;;27.53;47.45
10992;BME280;5549;47.028;15.514;2022-08-19T12:50:14;96092.41;;;27.77;46.91
10992;BME280;5549;47.028;15.514;2022-08-19T12:52:43;96092.41;;;27.77;43.48
10992;BME280;5549;47.028;15.514;2022-08-19T12:55:14;96088.84;;;27.94;45.41
10992;BME280;5549;47.028;15.514;2022-08-19T12:57:46;96096.72;;;28.17;45.17
10992;BME280;5549;47.028;15.514;2022-08-19T13:00:19;96104.66;;;28.46;45.85
10992;BME280;5549;47.028;15.514;2022-08-19T13:02:50;96102.69;;;28.63;45.58
10992;BME280;5549;47.028;15.514;2022-08-19T13:05:30;96105.06;;;28.16;42.37
10992;BME280;5549;47.028;15.514;2022-08-19T13:08:00;96107.25;;;28.19;42.98
10992;BME280;5549;47.028;15.514;2022-08-19T13:10:32;96102.78;;;28.24;43.45
10992;BME280;5549;47.028;15.514;2022-08-19T13:13:03;96109.59;;;28.10;42.08
10992;BME280;5549;47.028;15.514;2022-08-19T13:15:34;96115.56;;;28.12;42.88
10992;BME280;5549;47.028;15.514;2022-08-19T13:18:04;96112.66;;;28.19;43.20
10992;BME280;5549;47.028;15.514;2022-08-19T13:20:36;96103.38;;;28.09;42.68